sensor_id;sensor_type;location;lat;lon;timestamp;pressure;altitude;pressure_sealevel;temperature;humidity
72961;BME280;61141;46.204;19.774;2023-04-03T00:02:17;100195.56;;;6.37;100.00
72961;BME280;61141;46.204;19.774;2023-04-03T00:05:20;100182.03;;;6.69;100.00
72961;BME280;61141;46.204;19.774;2023-04-03T00:08:23;100185.50;;;6.54;100.00
72961;BME280;61141;46.204;19.774;2023-04-03T00:11:26;100197.28;;;6.58;100.00
72961;BME280;61141;46.204;19.774;2023-04-03T00:14:29;100187.78;;;6.52;100.00
72961;BME280;61141;46.204;19.774;2023-04-03T00:17:32;100192.53;;;6.55;100.00
72961;BME280;61141;46.204;19.774;2023-04-03T00:20:35;100193.50;;;6.34;100.00
72961;BME280;61141;46.204;19.774;2023-04-03T00:23:38;100183.03;;;6.48;100.00
72961;BME280;61141;46.204;19.774;2023-04-03T00:26:48;100187.44;;;6.81;100.00
72961;BME280;61141;46.204;19.774;2023-04-03T00:29:51;100192.53;;;6.82;100.00
72961;BME280;61141;46.204;19.774;2023-04-03T00:32:54;100197.50;;;6.65;100.00
72961;BME280;61141;46.204;19.774;2023-04-03T00:35:57;100201.09;;;6.69;100.00
72961;BME280;61141;46.204;19.774;2023-04-03T00:39:00;100197.28;;;6.58;100.00
72961;BME280;61141;46.204;19.774;2023-04-03T00:42:03;100191.34;;;6.68;100.00
72961;BME280;61141;46.204;19.774;2023-04-03T00:48:12;100195.84;;;6.76;100.00
72961;BME280;61141;46.204;19.774;2023-04-03T00:51:25;100200.25;;;6.80;100.00
72961;BME280;61141;46.204;19.774;2023-04-03T00:54:29;100201.41;;;6.79;100.00
72961;BME280;61141;46.204;19.774;2023-04-03T00:57:32;100200.88;;;6.74;100.00
72961;BME280;61141;46.204;19.774;2023-04-03T01:00:38;100200.31;;;6.68;100.00
72961;BME280;61141;46.204;19.774;2023-04-03T01:03:42;100206.87;;;6.67;100.00
72961;BME280;61141;46.204;19.774;2023-04-03T01:06:46;100204.13;;;6.52;100.00
72961;BME280;61141;46.204;19.774;2023-04-03T01:09:51;100203.22;;;6.75;100.00
72961;BME280;61141;46.204;19.774;2023-04-03T01:12:55;100213.81;;;6.65;100.00
72961;BME280;61141;46.204;19.774;2023-04-03T01:16:03;100205.91;;;6.60;100.00
72961;BME280;61141;46.204;19.774;2023-04-03T01:19:12;100218.75;;;6.75;100.00
72961;BME280;61141;46.204;19.774;2023-04-03T01:22:25;100211.25;;;6.84;100.00
72961;BME280;61141;46.204;19.774;2023-04-03T01:25:31;100220.81;;;6.66;100.00
72961;BME280;61141;46.204;19.774;2023-04-03T01:28:35;100210.75;;;6.66;100.00
72961;BME280;61141;46.204;19.774;2023-04-03T01:31:48;100223.94;;;7.07;100.00
72961;BME280;61141;46.204;19.774;2023-04-03T01:34:56;100219.25;;;6.92;100.00
72961;BME280;61141;46.204;19.774;2023-04-03T01:37:59;100229.91;;;7.13;100.00
72961;BME280;61141;46.204;19.774;2023-04-03T01:41:02;100225.78;;;7.03;100.00
72961;BME280;61141;46.204;19.774;2023-04-03T01:44:06;100232.59;;;6.82;100.00
72961;BME280;61141;46.204;19.774;2023-04-03T01:47:08;100226.38;;;6.97;100.00
72961;BME280;61141;46.204;19.774;2023-04-03T01:50:12;100225.53;;;6.81;100.00
72961;BME280;61141;46.204;19.774;2023-04-03T01:53:14;100227.31;;;6.89;100.00
72961;BME280;61141;46.204;19.774;2023-04-03T01:56:17;100238.03;;;6.82;100.00
72961;BME280;61141;46.204;19.774;2023-04-03T01:59:20;100236.87;;;6.83;100.00
72961;BME280;61141;46.204;19.774;2023-04-03T02:02:23;100228.97;;;6.78;100.00
72961;BME280;61141;46.204;19.774;2023-04-03T02:05:26;100248.97;;;6.58;100.00
72961;BME280;61141;46.204;19.774;2023-04-03T02:08:29;100256.22;;;6.66;100.00
72961;BME280;61141;46.204;19.774;2023-04-03T02:11:32;100244.09;;;6.63;100.00
72961;BME280;61141;46.204;19.774;2023-04-03T02:14:35;100249.03;;;6.45;100.00
72961;BME280;61141;46.204;19.774;2023-04-03T02:17:38;100267.75;;;6.35;100.00
72961;BME280;61141;46.204;19.774;2023-04-03T02:20:41;100252.00;;;6.40;100.00
72961;BME280;61141;46.204;19.774;2023-04-03T02:23:44;100245.88;;;6.31;100.00
72961;BME280;61141;46.204;19.774;2023-04-03T02:26:47;100264.31;;;6.38;100.00
72961;BME280;61141;46.204;19.774;2023-04-03T02:29:50;100249.81;;;6.46;100.00
72961;BME280;61141;46.204;19.774;2023-04-03T02:32:53;100249.16;;;6.25;100.00
72961;BME280;61141;46.204;19.774;2023-04-03T02:35:56;100245.28;;;6.38;100.00
72961;BME280;61141;46.204;19.774;2023-04-03T02:38:59;100248.59;;;6.31;100.00
72961;BME280;61141;46.204;19.774;2023-04-03T02:42:03;100248.03;;;6.26;100.00
72961;BME280;61141;46.204;19.774;2023-04-03T02:45:06;100253.00;;;6.36;100.00
72961;BME280;61141;46.204;19.774;2023-04-03T02:48:09;100262.41;;;6.38;100.00
72961;BME280;61141;46.204;19.774;2023-04-03T02:51:12;100253.69;;;6.33;100.00
72961;BME280;61141;46.204;19.774;2023-04-03T02:54:15;100250.72;;;6.38;99.12
72961;BME280;61141;46.204;19.774;2023-04-03T02:57:18;100248.13;;;6.41;98.19
72961;BME280;61141;46.204;19.774;2023-04-03T03:00:22;100255.72;;;6.48;97.97
72961;BME280;61141;46.204;19.774;2023-04-03T03:03:25;100257.53;;;6.44;96.32
72961;BME280;61141;46.204;19.774;2023-04-03T03:06:28;100264.66;;;6.48;96.02
72961;BME280;61141;46.204;19.774;2023-04-03T03:09:31;100254.91;;;6.47;94.94
72961;BME280;61141;46.204;19.774;2023-04-03T03:12:34;100265.44;;;6.49;94.65
72961;BME280;61141;46.204;19.774;2023-04-03T03:15:37;100266.78;;;6.55;93.24
72961;BME280;61141;46.204;19.774;2023-04-03T03:18:40;100257.63;;;6.47;91.95
72961;BME280;61141;46.204;19.774;2023-04-03T03:21:43;100281.69;;;6.45;89.74
72961;BME280;61141;46.204;19.774;2023-04-03T03:24:46;100273.19;;;6.35;90.58
72961;BME280;61141;46.204;19.774;2023-04-03T03:27:49;100267.84;;;6.50;91.29
72961;BME280;61141;46.204;19.774;2023-04-03T03:30:52;100283.16;;;6.43;90.61
72961;BME280;61141;46.204;19.774;2023-04-03T03:33:56;100265.72;;;6.32;91.30
72961;BME280;61141;46.204;19.774;2023-04-03T03:36:59;100244.50;;;6.37;91.61
72961;BME280;61141;46.204;19.774;2023-04-03T03:40:03;100244.28;;;6.42;91.11
72961;BME280;61141;46.204;19.774;2023-04-03T03:43:07;100265.44;;;6.49;88.13
72961;BME280;61141;46.204;19.774;2023-04-03T03:46:10;100270.47;;;6.35;88.42
72961;BME280;61141;46.204;19.774;2023-04-03T03:49:13;100268.31;;;6.40;87.40
72961;BME280;61141;46.204;19.774;2023-04-03T03:52:16;100278.97;;;6.33;87.31
72961;BME280;61141;46.204;19.774;2023-04-03T03:55:19;100280.53;;;6.46;87.28
72961;BME280;61141;46.204;19.774;2023-04-03T03:58:25;100280.75;;;6.41;85.89
72961;BME280;61141;46.204;19.774;2023-04-03T04:01:27;100294.16;;;6.34;85.88
72961;BME280;61141;46.204;19.774;2023-04-03T04:04:31;100285.53;;;6.44;85.14
72961;BME280;61141;46.204;19.774;2023-04-03T04:07:34;100289.16;;;6.36;85.36
72961;BME280;61141;46.204;19.774;2023-04-03T04:10:38;100283.59;;;6.45;86.63
72961;BME280;61141;46.204;19.774;2023-04-03T04:13:41;100281.69;;;6.45;86.85
72961;BME280;61141;46.204;19.774;2023-04-03T04:16:44;100290.16;;;6.44;87.91
72961;BME280;61141;46.204;19.774;2023-04-03T04:19:48;100288.16;;;6.29;88.17
72961;BME280;61141;46.204;19.774;2023-04-03T04:22:51;100297.09;;;6.41;88.50
72961;BME280;61141;46.204;19.774;2023-04-03T04:25:55;100301.59;;;6.62;89.21
72961;BME280;61141;46.204;19.774;2023-04-03T04:28:58;100300.81;;;6.49;89.13
72961;BME280;61141;46.204;19.774;2023-04-03T04:32:04;100303.38;;;6.70;89.01
72961;BME280;61141;46.204;19.774;2023-04-03T04:35:07;100294.59;;;6.36;89.94
72961;BME280;61141;46.204;19.774;2023-04-03T04:38:11;100313.28;;;6.38;89.79
72961;BME280;61141;46.204;19.774;2023-04-03T04:41:14;100303.19;;;6.63;89.42
72961;BME280;61141;46.204;19.774;2023-04-03T04:44:19;100309.22;;;6.44;90.01
72961;BME280;61141;46.204;19.774;2023-04-03T04:47:23;100322.00;;;6.68;89.63
72961;BME280;61141;46.204;19.774;2023-04-03T04:50:26;100323.69;;;6.72;89.45
72961;BME280;61141;46.204;19.774;2023-04-03T04:53:30;100331.53;;;6.49;89.71
72961;BME280;61141;46.204;19.774;2023-04-03T04:56:34;100330.66;;;6.45;89.39
72961;BME280;61141;46.204;19.774;2023-04-03T04:59:39;100337.91;;;6.54;89.24
72961;BME280;61141;46.204;19.774;2023-04-03T05:02:42;100338.19;;;6.76;88.59
72961;BME280;61141;46.204;19.774;2023-04-03T05:05:46;100349.53;;;6.66;88.55
72961;BME280;61141;46.204;19.774;2023-04-03T05:08:49;100356.25;;;6.57;88.33
72961;BME280;61141;46.204;19.774;2023-04-03T05:11:53;100359.13;;;6.88;87.53
72961;BME280;61141;46.204;19.774;2023-04-03T05:14:57;100351.00;;;6.76;87.17
72961;BME280;61141;46.204;19.774;2023-04-03T05:18:02;100361.09;;;6.75;85.96
72961;BME280;61141;46.204;19.774;2023-04-03T05:21:05;100358.06;;;6.53;86.00
72961;BME280;61141;46.204;19.774;2023-04-03T05:24:08;100362.34;;;6.66;87.00
72961;BME280;61141;46.204;19.774;2023-04-03T05:27:12;100362.59;;;7.40;86.34
72961;BME280;61141;46.204;19.774;2023-04-03T05:30:17;100363.38;;;7.13;85.26
72961;BME280;61141;46.204;19.774;2023-04-03T05:33:22;100365.44;;;7.44;82.86
72961;BME280;61141;46.204;19.774;2023-04-03T05:36:26;100372.78;;;7.16;84.02
72961;BME280;61141;46.204;19.774;2023-04-03T05:39:30;100365.13;;;7.05;85.43
72961;BME280;61141;46.204;19.774;2023-04-03T05:42:34;100367.44;;;7.19;84.10
72961;BME280;61141;46.204;19.774;2023-04-03T05:45:37;100372.66;;;7.24;83.76
72961;BME280;61141;46.204;19.774;2023-04-03T05:48:40;100377.31;;;7.24;82.35
72961;BME280;61141;46.204;19.774;2023-04-03T05:51:45;100379.41;;;7.02;83.63
72961;BME280;61141;46.204;19.774;2023-04-03T05:54:49;100379.34;;;7.27;82.96
72961;BME280;61141;46.204;19.774;2023-04-03T05:57:52;100379.19;;;7.35;83.96
72961;BME280;61141;46.204;19.774;2023-04-03T06:00:56;100386.81;;;7.57;82.92
72961;BME280;61141;46.204;19.774;2023-04-03T06:04:00;100391.41;;;7.14;82.46
72961;BME280;61141;46.204;19.774;2023-04-03T06:07:03;100396.44;;;7.39;82.68
72961;BME280;61141;46.204;19.774;2023-04-03T06:10:07;100396.44;;;7.67;81.61
72961;BME280;61141;46.204;19.774;2023-04-03T06:13:11;100391.41;;;7.26;83.00
72961;BME280;61141;46.204;19.774;2023-04-03T06:16:14;100392.94;;;7.39;81.65
72961;BME280;61141;46.204;19.774;2023-04-03T06:19:19;100394.38;;;7.21;82.60
72961;BME280;61141;46.204;19.774;2023-04-03T06:22:23;100396.28;;;7.76;80.91
72961;BME280;61141;46.204;19.774;2023-04-03T06:25:27;100388.56;;;7.78;80.15
72961;BME280;61141;46.204;19.774;2023-04-03T06:28:30;100387.56;;;7.70;81.92
72961;BME280;61141;46.204;19.774;2023-04-03T06:31:34;100400.03;;;7.55;80.50
72961;BME280;61141;46.204;19.774;2023-04-03T06:34:39;100393.06;;;7.58;80.43
72961;BME280;61141;46.204;19.774;2023-04-03T06:37:42;100403.13;;;7.69;82.00
72961;BME280;61141;46.204;19.774;2023-04-03T06:40:45;100402.09;;;7.74;81.46
72961;BME280;61141;46.204;19.774;2023-04-03T06:43:48;100408.59;;;7.69;81.07
72961;BME280;61141;46.204;19.774;2023-04-03T06:46:51;100404.84;;;7.90;81.02
72961;BME280;61141;46.204;19.774;2023-04-03T06:49:54;100405.56;;;8.18;81.13
72961;BME280;61141;46.204;19.774;2023-04-03T06:52:57;100409.19;;;8.22;80.15
72961;BME280;61141;46.204;19.774;2023-04-03T06:56:00;100416.47;;;7.59;83.84
72961;BME280;61141;46.204;19.774;2023-04-03T06:59:03;100422.59;;;7.84;83.97
72961;BME280;61141;46.204;19.774;2023-04-03T07:02:06;100415.84;;;8.37;84.38
72961;BME280;61141;46.204;19.774;2023-04-03T07:05:09;100419.31;;;8.21;84.89
72961;BME280;61141;46.204;19.774;2023-04-03T07:08:12;100419.69;;;8.20;83.09
72961;BME280;61141;46.204;19.774;2023-04-03T07:11:16;100421.06;;;8.14;83.32
72961;BME280;61141;46.204;19.774;2023-04-03T07:14:19;100421.41;;;7.69;84.55
72961;BME280;61141;46.204;19.774;2023-04-03T07:17:22;100425.38;;;7.72;86.35
72961;BME280;61141;46.204;19.774;2023-04-03T07:20:24;100420.06;;;7.91;83.08
72961;BME280;61141;46.204;19.774;2023-04-03T07:23:27;100426.47;;;7.83;82.81
72961;BME280;61141;46.204;19.774;2023-04-03T07:26:30;100427.28;;;7.99;83.67
72961;BME280;61141;46.204;19.774;2023-04-03T07:29:34;100432.28;;;7.81;82.55
72961;BME280;61141;46.204;19.774;2023-04-03T07:32:37;100425.38;;;8.15;83.77
72961;BME280;61141;46.204;19.774;2023-04-03T07:35:42;100428.28;;;8.22;81.68
72961;BME280;61141;46.204;19.774;2023-04-03T07:38:45;100450.28;;;8.13;81.46
72961;BME280;61141;46.204;19.774;2023-04-03T07:41:48;100442.16;;;8.01;81.33
72961;BME280;61141;46.204;19.774;2023-04-03T07:44:52;100445.47;;;8.22;82.03
72961;BME280;61141;46.204;19.774;2023-04-03T07:47:55;100449.97;;;8.46;81.90
72961;BME280;61141;46.204;19.774;2023-04-03T07:51:02;100453.06;;;8.60;80.30
72961;BME280;61141;46.204;19.774;2023-04-03T07:54:06;100439.66;;;9.21;79.12
72961;BME280;61141;46.204;19.774;2023-04-03T07:57:09;100461.94;;;9.58;78.69
72961;BME280;61141;46.204;19.774;2023-04-03T08:00:13;100450.06;;;9.16;75.48
72961;BME280;61141;46.204;19.774;2023-04-03T08:03:16;100462.09;;;8.96;76.26
72961;BME280;61141;46.204;19.774;2023-04-03T08:06:20;100460.63;;;8.82;75.57
72961;BME280;61141;46.204;19.774;2023-04-03T08:09:43;100467.59;;;9.15;76.20
72961;BME280;61141;46.204;19.774;2023-04-03T08:12:47;100468.88;;;9.02;75.78
72961;BME280;61141;46.204;19.774;2023-04-03T08:15:50;100465.47;;;8.89;75.07
72961;BME280;61141;46.204;19.774;2023-04-03T08:18:54;100461.50;;;8.71;76.44
72961;BME280;61141;46.204;19.774;2023-04-03T08:21:57;100462.78;;;9.62;75.02
72961;BME280;61141;46.204;19.774;2023-04-03T08:25:01;100461.16;;;9.23;74.37
72961;BME280;61141;46.204;19.774;2023-04-03T08:28:05;100468.97;;;9.78;73.73
72961;BME280;61141;46.204;19.774;2023-04-03T08:31:11;100463.03;;;9.03;74.10
72961;BME280;61141;46.204;19.774;2023-04-03T08:34:17;100474.94;;;9.11;75.29
72961;BME280;61141;46.204;19.774;2023-04-03T08:37:20;100482.03;;;8.96;74.99
72961;BME280;61141;46.204;19.774;2023-04-03T08:40:23;100480.87;;;8.97;74.94
72961;BME280;61141;46.204;19.774;2023-04-03T08:43:58;100467.75;;;9.76;73.54
72961;BME280;61141;46.204;19.774;2023-04-03T08:47:28;100465.41;;;9.39;73.10
72961;BME280;61141;46.204;19.774;2023-04-03T08:50:38;100471.41;;;9.45;72.06
72961;BME280;61141;46.204;19.774;2023-04-03T08:57:04;100476.75;;;10.15;70.15
72961;BME280;61141;46.204;19.774;2023-04-03T09:00:18;100474.56;;;10.04;69.17
72961;BME280;61141;46.204;19.774;2023-04-03T09:03:22;100465.44;;;10.16;68.08
72961;BME280;61141;46.204;19.774;2023-04-03T09:06:28;100473.41;;;9.86;67.05
72961;BME280;61141;46.204;19.774;2023-04-03T09:09:39;100477.44;;;10.12;67.30
72961;BME280;61141;46.204;19.774;2023-04-03T09:12:50;100466.81;;;9.49;68.44
72961;BME280;61141;46.204;19.774;2023-04-03T09:15:56;100472.56;;;9.44;69.12
72961;BME280;61141;46.204;19.774;2023-04-03T09:19:12;100469.91;;;9.67;67.34
72961;BME280;61141;46.204;19.774;2023-04-03T09:22:21;100461.19;;;10.19;66.42
72961;BME280;61141;46.204;19.774;2023-04-03T09:25:32;100456.66;;;9.69;63.22
72961;BME280;61141;46.204;19.774;2023-04-03T09:28:39;100462.31;;;10.18;64.15
72961;BME280;61141;46.204;19.774;2023-04-03T09:32:02;100460.13;;;9.85;64.06
72961;BME280;61141;46.204;19.774;2023-04-03T09:38:46;100458.28;;;10.12;61.30
72961;BME280;61141;46.204;19.774;2023-04-03T09:42:17;100453.59;;;10.80;60.71
72961;BME280;61141;46.204;19.774;2023-04-03T09:45:25;100436.53;;;10.64;61.31
72961;BME280;61141;46.204;19.774;2023-04-03T09:48:30;100450.94;;;10.38;60.74
72961;BME280;61141;46.204;19.774;2023-04-03T09:51:33;100454.03;;;10.14;60.23
72961;BME280;61141;46.204;19.774;2023-04-03T09:54:39;100446.78;;;9.83;61.32
72961;BME280;61141;46.204;19.774;2023-04-03T09:57:45;100448.59;;;10.37;59.62
72961;BME280;61141;46.204;19.774;2023-04-03T10:00:57;100453.22;;;9.91;60.60
72961;BME280;61141;46.204;19.774;2023-04-03T10:04:15;100452.41;;;9.90;60.14
72961;BME280;61141;46.204;19.774;2023-04-03T10:07:34;100448.34;;;10.03;59.87
72961;BME280;61141;46.204;19.774;2023-04-03T10:10:43;100436.25;;;10.24;59.35
72961;BME280;61141;46.204;19.774;2023-04-03T10:13:56;100425.31;;;10.73;59.16
72961;BME280;61141;46.204;19.774;2023-04-03T10:17:18;100428.69;;;10.63;59.15
72961;BME280;61141;46.204;19.774;2023-04-03T10:23:49;100407.19;;;10.65;58.71
72961;BME280;61141;46.204;19.774;2023-04-03T10:43:33;100419.72;;;10.92;55.44
72961;BME280;61141;46.204;19.774;2023-04-03T10:46:53;100401.12;;;10.78;55.26
72961;BME280;61141;46.204;19.774;2023-04-03T10:50:10;100410.37;;;11.23;55.25
72961;BME280;61141;46.204;19.774;2023-04-03T10:53:29;100417.63;;;11.38;55.41
72961;BME280;61141;46.204;19.774;2023-04-03T10:56:56;100392.31;;;11.51;54.88
72961;BME280;61141;46.204;19.774;2023-04-03T11:00:30;100418.97;;;11.54;54.03
72961;BME280;61141;46.204;19.774;2023-04-03T11:03:40;100411.91;;;11.83;54.83
72961;BME280;61141;46.204;19.774;2023-04-03T11:06:55;100404.59;;;11.31;52.60
72961;BME280;61141;46.204;19.774;2023-04-03T11:10:11;100400.69;;;11.95;52.47
72961;BME280;61141;46.204;19.774;2023-04-03T11:13:22;100393.88;;;12.73;52.17
72961;BME280;61141;46.204;19.774;2023-04-03T11:16:30;100397.59;;;12.00;50.14
72961;BME280;61141;46.204;19.774;2023-04-03T11:26:17;100390.16;;;12.04;50.17
72961;BME280;61141;46.204;19.774;2023-04-03T11:29:26;100404.59;;;11.31;51.68
72961;BME280;61141;46.204;19.774;2023-04-03T11:35:54;100382.16;;;11.89;51.47
72961;BME280;61141;46.204;19.774;2023-04-03T11:39:16;100383.25;;;11.81;52.06
72961;BME280;61141;46.204;19.774;2023-04-03T11:42:42;100384.72;;;11.38;51.34
72961;BME280;61141;46.204;19.774;2023-04-03T11:45:53;100366.41;;;11.82;51.07
72961;BME280;61141;46.204;19.774;2023-04-03T11:48:57;100361.00;;;11.89;51.50
72961;BME280;61141;46.204;19.774;2023-04-03T11:52:01;100371.09;;;10.85;52.16
72961;BME280;61141;46.204;19.774;2023-04-03T11:58:26;100366.34;;;11.42;50.96
72961;BME280;61141;46.204;19.774;2023-04-03T12:01:53;100355.75;;;11.73;50.17
72961;BME280;61141;46.204;19.774;2023-04-03T12:05:26;100359.84;;;11.90;52.18
72961;BME280;61141;46.204;19.774;2023-04-03T12:11:35;100368.56;;;11.33;50.13
72961;BME280;61141;46.204;19.774;2023-04-03T12:14:39;100368.97;;;10.75;50.31
72961;BME280;61141;46.204;19.774;2023-04-03T12:17:42;100368.75;;;11.80;49.77
72961;BME280;61141;46.204;19.774;2023-04-03T12:27:40;100351.81;;;11.38;50.00
72961;BME280;61141;46.204;19.774;2023-04-03T12:30:45;100350.41;;;11.54;50.84
72961;BME280;61141;46.204;19.774;2023-04-03T12:37:51;100356.63;;;11.81;48.15
72961;BME280;61141;46.204;19.774;2023-04-03T12:41:24;100353.69;;;11.00;48.25
72961;BME280;61141;46.204;19.774;2023-04-03T12:44:37;100361.34;;;11.17;49.60
72961;BME280;61141;46.204;19.774;2023-04-03T12:47:44;100348.16;;;11.63;50.66
72961;BME280;61141;46.204;19.774;2023-04-03T12:50:49;100352.97;;;11.37;51.75
72961;BME280;61141;46.204;19.774;2023-04-03T12:53:52;100348.03;;;11.19;51.04
72961;BME280;61141;46.204;19.774;2023-04-03T13:00:31;100356.88;;;10.76;50.52
72961;BME280;61141;46.204;19.774;2023-04-03T13:03:38;100356.16;;;10.83;52.84
72961;BME280;61141;46.204;19.774;2023-04-03T13:06:43;100346.38;;;10.82;52.74
72961;BME280;61141;46.204;19.774;2023-04-03T13:09:56;100350.84;;;11.23;53.43
72961;BME280;61141;46.204;19.774;2023-04-03T13:13:08;100340.38;;;11.32;52.61
72961;BME280;61141;46.204;19.774;2023-04-03T13:16:11;100346.56;;;11.59;51.41
72961;BME280;61141;46.204;19.774;2023-04-03T13:19:17;100322.84;;;11.07;51.77
72961;BME280;61141;46.204;19.774;2023-04-03T13:22:32;100315.25;;;10.67;52.53
72961;BME280;61141;46.204;19.774;2023-04-03T13:25:41;100326.47;;;10.85;50.36
72961;BME280;61141;46.204;19.774;2023-04-03T13:28:46;100310.16;;;10.95;49.63
72961;BME280;61141;46.204;19.774;2023-04-03T13:31:53;100307.34;;;11.95;49.57
72961;BME280;61141;46.204;19.774;2023-04-03T13:34:58;100323.28;;;11.46;48.63
72961;BME280;61141;46.204;19.774;2023-04-03T13:41:26;100312.44;;;11.23;49.14
72961;BME280;61141;46.204;19.774;2023-04-03T13:44:34;100326.62;;;10.69;50.79
72961;BME280;61141;46.204;19.774;2023-04-03T13:47:43;100306.50;;;10.84;50.60
72961;BME280;61141;46.204;19.774;2023-04-03T13:50:59;100302.75;;;10.99;50.53
72961;BME280;61141;46.204;19.774;2023-04-03T13:54:19;100298.47;;;11.02;50.39
72961;BME280;61141;46.204;19.774;2023-04-03T13:57:23;100291.28;;;11.60;50.26
72961;BME280;61141;46.204;19.774;2023-04-03T14:00:39;100285.25;;;11.44;50.28
72961;BME280;61141;46.204;19.774;2023-04-03T14:03:58;100286.22;;;11.26;49.78
72961;BME280;61141;46.204;19.774;2023-04-03T14:07:01;100274.59;;;11.36;50.03
72961;BME280;61141;46.204;19.774;2023-04-03T14:10:05;100281.22;;;11.71;49.89
72961;BME280;61141;46.204;19.774;2023-04-03T14:13:14;100289.31;;;11.20;50.56
72961;BME280;61141;46.204;19.774;2023-04-03T14:16:23;100288.59;;;11.27;51.19
72961;BME280;61141;46.204;19.774;2023-04-03T14:19:29;100284.47;;;10.77;52.16
72961;BME280;61141;46.204;19.774;2023-04-03T14:22:33;100278.38;;;11.24;52.65
72961;BME280;61141;46.204;19.774;2023-04-03T14:25:37;100283.22;;;10.71;52.64
72961;BME280;61141;46.204;19.774;2023-04-03T14:28:40;100271.13;;;10.46;53.08
72961;BME280;61141;46.204;19.774;2023-04-03T14:31:47;100290.19;;;10.39;53.59
72961;BME280;61141;46.204;19.774;2023-04-03T14:35:02;100287.97;;;10.48;53.86
72961;BME280;61141;46.204;19.774;2023-04-03T14:38:23;100299.38;;;10.24;54.66
72961;BME280;61141;46.204;19.774;2023-04-03T14:41:27;100305.47;;;10.40;55.23
72961;BME280;61141;46.204;19.774;2023-04-03T14:44:30;100302.19;;;10.08;55.96
72961;BME280;61141;46.204;19.774;2023-04-03T14:47:46;100304.34;;;9.95;56.41
72961;BME280;61141;46.204;19.774;2023-04-03T14:50:51;100307.31;;;9.87;56.43
72961;BME280;61141;46.204;19.774;2023-04-03T14:54:16;100299.69;;;10.19;56.38
72961;BME280;61141;46.204;19.774;2023-04-03T14:57:21;100308.47;;;10.31;56.26
72961;BME280;61141;46.204;19.774;2023-04-03T15:00:27;100303.25;;;10.23;54.75
72961;BME280;61141;46.204;19.774;2023-04-03T15:03:29;100303.16;;;10.16;55.06
72961;BME280;61141;46.204;19.774;2023-04-03T15:06:33;100303.25;;;10.49;55.87
72961;BME280;61141;46.204;19.774;2023-04-03T15:09:36;100306.47;;;10.05;55.09
72961;BME280;61141;46.204;19.774;2023-04-03T15:12:42;100311.25;;;10.35;55.42
72961;BME280;61141;46.204;19.774;2023-04-03T15:15:45;100304.50;;;10.55;54.64
72961;BME280;61141;46.204;19.774;2023-04-03T15:18:48;100296.62;;;10.24;54.49
72961;BME280;61141;46.204;19.774;2023-04-03T15:21:51;100312.88;;;10.13;54.69
72961;BME280;61141;46.204;19.774;2023-04-03T15:24:54;100318.25;;;10.10;54.20
72961;BME280;61141;46.204;19.774;2023-04-03T15:27:57;100306.09;;;10.30;54.19
72961;BME280;61141;46.204;19.774;2023-04-03T15:31:01;100313.66;;;10.14;54.66
72961;BME280;61141;46.204;19.774;2023-04-03T15:34:04;100323.25;;;10.04;54.86
72961;BME280;61141;46.204;19.774;2023-04-03T15:37:07;100315.47;;;9.83;54.49
72961;BME280;61141;46.204;19.774;2023-04-03T15:40:10;100328.31;;;9.79;54.95
72961;BME280;61141;46.204;19.774;2023-04-03T15:43:14;100313.75;;;9.75;54.82
72961;BME280;61141;46.204;19.774;2023-04-03T15:46:17;100315.28;;;9.73;54.71
72961;BME280;61141;46.204;19.774;2023-04-03T15:49:21;100301.59;;;9.73;55.27
72961;BME280;61141;46.204;19.774;2023-04-03T15:52:24;100303.62;;;9.76;54.67
72961;BME280;61141;46.204;19.774;2023-04-03T15:55:29;100312.78;;;9.64;55.09
72961;BME280;61141;46.204;19.774;2023-04-03T15:58:32;100315.41;;;9.57;54.34
72961;BME280;61141;46.204;19.774;2023-04-03T16:01:36;100313.31;;;9.51;55.39
72961;BME280;61141;46.204;19.774;2023-04-03T16:04:40;100302.72;;;9.68;54.04
72961;BME280;61141;46.204;19.774;2023-04-03T16:07:44;100308.34;;;9.56;53.58
72961;BME280;61141;46.204;19.774;2023-04-03T16:10:48;100323.97;;;9.78;54.35
72961;BME280;61141;46.204;19.774;2023-04-03T16:13:51;100332.37;;;9.66;54.49
72961;BME280;61141;46.204;19.774;2023-04-03T16:16:53;100338.25;;;9.68;53.99
72961;BME280;61141;46.204;19.774;2023-04-03T16:19:57;100341.16;;;9.56;53.64
72961;BME280;61141;46.204;19.774;2023-04-03T16:23:01;100332.94;;;9.56;53.58
72961;BME280;61141;46.204;19.774;2023-04-03T16:26:04;100349.59;;;9.48;52.74
72961;BME280;61141;46.204;19.774;2023-04-03T16:29:07;100360.88;;;9.46;53.14
72961;BME280;61141;46.204;19.774;2023-04-03T16:32:09;100361.47;;;9.36;53.46
72961;BME280;61141;46.204;19.774;2023-04-03T16:35:13;100366.72;;;9.25;53.43
72961;BME280;61141;46.204;19.774;2023-04-03T16:38:15;100379.00;;;8.97;51.56
72961;BME280;61141;46.204;19.774;2023-04-03T16:41:19;100371.84;;;8.92;51.71
72961;BME280;61141;46.204;19.774;2023-04-03T16:44:21;100387.50;;;8.76;51.29
72961;BME280;61141;46.204;19.774;2023-04-03T16:47:24;100380.28;;;8.83;51.45
72961;BME280;61141;46.204;19.774;2023-04-03T16:50:27;100386.72;;;8.75;51.19
72961;BME280;61141;46.204;19.774;2023-04-03T16:53:30;100394.25;;;8.47;51.40
72961;BME280;61141;46.204;19.774;2023-04-03T16:56:33;100389.66;;;8.67;52.51
72961;BME280;61141;46.204;19.774;2023-04-03T16:59:36;100384.66;;;8.38;52.76
72961;BME280;61141;46.204;19.774;2023-04-03T17:02:39;100388.31;;;7.98;53.25
72961;BME280;61141;46.204;19.774;2023-04-03T17:05:46;100371.81;;;7.79;53.66
72961;BME280;61141;46.204;19.774;2023-04-03T17:08:51;100371.94;;;7.83;53.82
72961;BME280;61141;46.204;19.774;2023-04-03T17:12:01;100373.09;;;7.97;53.45